createdAt,value
2024-02-07T00:01:22.178Z,67.60
2024-02-07T00:03:49.472Z,67.60
2024-02-07T00:06:17.999Z,67.50
2024-02-07T00:08:44.973Z,67.40
2024-02-07T00:11:11.914Z,67.40
2024-02-07T00:13:39.007Z,67.30
2024-02-07T00:16:06.447Z,67.20
2024-02-07T00:18:33.476Z,67.20
2024-02-07T00:21:00.451Z,67.20
2024-02-07T00:23:27.442Z,67.20
2024-02-07T00:25:54.485Z,67.20
2024-02-07T00:28:22.063Z,67.20
2024-02-07T00:30:49.179Z,67.20
2024-02-07T00:33:16.330Z,67.40
2024-02-07T00:35:43.435Z,67.50
2024-02-07T00:38:10.361Z,67.40
2024-02-07T00:40:37.832Z,67.40
2024-02-07T00:43:04.921Z,67.40
2024-02-07T00:45:31.921Z,67.40
2024-02-07T00:47:58.961Z,67.30
2024-02-07T00:50:26.088Z,67.30
2024-02-07T00:52:53.145Z,67.40
2024-02-07T00:55:20.197Z,67.40
2024-02-07T00:57:48.216Z,67.40
2024-02-07T01:00:16.123Z,67.40
2024-02-07T01:02:43.814Z,67.40
2024-02-07T01:05:11.178Z,67.30
2024-02-07T01:07:38.828Z,67.40
2024-02-07T01:10:06.821Z,67.40
2024-02-07T01:12:33.984Z,67.40
2024-02-07T01:15:01.028Z,67.40
2024-02-07T01:17:28.149Z,67.40
2024-02-07T01:19:55.495Z,67.40
2024-02-07T01:22:24.035Z,67.40
2024-02-07T01:24:50.998Z,67.50
2024-02-07T01:27:17.981Z,67.50
2024-02-07T01:29:44.972Z,67.40
2024-02-07T01:32:11.928Z,67.40
2024-02-07T01:34:39.390Z,67.50
2024-02-07T01:37:06.732Z,67.50
2024-02-07T01:39:36.425Z,67.50
2024-02-07T01:42:04.112Z,67.50
2024-02-07T01:44:32.458Z,67.50
2024-02-07T01:47:13.442Z,67.60
2024-02-07T01:49:46.884Z,67.70
2024-02-07T01:52:18.474Z,67.80
2024-02-07T01:54:45.924Z,67.90
2024-02-07T01:57:14.345Z,67.90
2024-02-07T01:59:42.743Z,68.00
2024-02-07T02:02:10.620Z,68.20
2024-02-07T02:04:38.542Z,68.40
2024-02-07T02:07:05.715Z,68.40
2024-02-07T02:09:32.685Z,68.50
2024-02-07T02:12:00.955Z,68.50
2024-02-07T02:14:29.938Z,68.50
2024-02-07T02:16:57.287Z,68.60
2024-02-07T02:19:24.361Z,68.60
2024-02-07T02:22:04.890Z,68.70
2024-02-07T02:25:16.351Z,68.60
2024-02-07T02:28:08.474Z,68.70
2024-02-07T02:30:48.331Z,68.70
2024-02-07T02:33:19.627Z,69.50
2024-02-07T02:35:47.934Z,68.80
2024-02-07T02:38:16.529Z,68.90
2024-02-07T02:40:44.588Z,68.90
2024-02-07T02:43:12.082Z,68.90
2024-02-07T02:45:39.111Z,69.00
2024-02-07T02:48:07.749Z,69.00
2024-02-07T02:50:35.640Z,69.00
2024-02-07T02:53:02.890Z,69.10
2024-02-07T02:55:33.012Z,69.00
2024-02-07T02:58:01.946Z,69.10
2024-02-07T03:00:29.443Z,69.00
2024-02-07T03:02:59.150Z,69.10
2024-02-07T03:05:42.212Z,69.10
2024-02-07T03:08:12.469Z,69.00
2024-02-07T03:10:42.766Z,69.00
2024-02-07T03:13:10.057Z,68.90
2024-02-07T03:15:37.277Z,69.00
2024-02-07T03:18:04.986Z,69.00
2024-02-07T03:20:32.038Z,68.90
2024-02-07T03:22:59.455Z,68.90
2024-02-07T03:25:27.344Z,68.80
2024-02-07T03:27:54.368Z,68.70
2024-02-07T03:30:25.342Z,68.70
2024-02-07T03:32:52.707Z,68.60
2024-02-07T03:35:20.083Z,68.60
2024-02-07T03:37:47.402Z,68.70
2024-02-07T03:40:15.285Z,68.70
2024-02-07T03:42:43.227Z,69.40
2024-02-07T03:45:18.208Z,68.50
2024-02-07T03:51:53.745Z,68.60
2024-02-07T03:54:20.946Z,68.60
2024-02-07T03:56:47.947Z,68.60
2024-02-07T03:59:14.961Z,68.60
2024-02-07T04:01:46.657Z,68.60
2024-02-07T04:04:13.832Z,68.70
2024-02-07T04:06:41.316Z,68.60
2024-02-07T04:09:10.197Z,68.70
2024-02-07T04:11:37.311Z,68.60
2024-02-07T04:14:04.449Z,68.70
2024-02-07T04:16:50.097Z,68.60
2024-02-07T04:19:35.705Z,68.50
2024-02-07T04:22:21.256Z,68.40
2024-02-07T04:25:06.729Z,68.40
2024-02-07T04:27:52.253Z,68.50
2024-02-07T04:30:37.679Z,68.40
2024-02-07T04:33:23.384Z,68.40
2024-02-07T04:36:08.841Z,68.40
2024-02-07T04:38:54.245Z,68.30
2024-02-07T04:41:39.573Z,68.30
2024-02-07T04:44:25.131Z,68.40
2024-02-07T04:47:10.522Z,68.40
2024-02-07T04:49:56.043Z,68.50
2024-02-07T04:52:41.649Z,68.50
2024-02-07T04:55:27.065Z,68.50
2024-02-07T04:58:12.975Z,68.40
2024-02-07T05:00:58.318Z,68.40
2024-02-07T05:03:43.716Z,68.40
2024-02-07T05:06:29.457Z,68.30
2024-02-07T05:09:14.733Z,68.30
2024-02-07T05:12:00.046Z,68.30
2024-02-07T05:14:45.511Z,68.20
2024-02-07T05:17:12.560Z,68.20
2024-02-07T05:19:39.687Z,68.20
2024-02-07T05:22:06.681Z,68.20
2024-02-07T05:24:33.726Z,68.20
2024-02-07T05:27:01.943Z,68.20
2024-02-07T05:29:29.015Z,68.20
2024-02-07T05:31:56.303Z,68.20
2024-02-07T05:34:24.051Z,68.20
2024-02-07T05:36:51.096Z,68.20
2024-02-07T05:39:18.570Z,68.20
2024-02-07T05:41:47.189Z,68.20
2024-02-07T05:44:14.428Z,68.20
2024-02-07T05:46:42.129Z,68.20
2024-02-07T05:49:09.279Z,68.40
2024-02-07T05:51:36.379Z,68.40
2024-02-07T05:54:03.330Z,68.40
2024-02-07T05:56:30.306Z,68.40
2024-02-07T05:58:57.320Z,68.40
2024-02-07T06:01:24.776Z,68.40
2024-02-07T06:03:52.766Z,68.50
2024-02-07T06:06:20.576Z,68.60
2024-02-07T06:08:50.377Z,68.70
2024-02-07T06:11:17.590Z,68.80
2024-02-07T06:13:45.287Z,68.90
2024-02-07T06:16:12.406Z,69.00
2024-02-07T06:18:39.575Z,69.10
2024-02-07T06:21:06.790Z,69.30
2024-02-07T06:23:34.451Z,69.40
2024-02-07T06:26:01.496Z,69.30
2024-02-07T06:28:28.680Z,69.50
2024-02-07T06:30:55.792Z,69.40
2024-02-07T06:33:22.979Z,69.60
2024-02-07T06:35:49.988Z,69.50
2024-02-07T06:38:17.114Z,69.70
2024-02-07T06:40:44.083Z,69.70
2024-02-07T06:43:11.202Z,69.80
2024-02-07T06:45:38.411Z,69.90
2024-02-07T06:48:07.054Z,70.00
2024-02-07T06:50:34.051Z,70.10
2024-02-07T06:53:01.891Z,70.10
2024-02-07T06:55:29.196Z,70.10
2024-02-07T06:57:56.370Z,70.20
2024-02-07T07:00:23.421Z,70.40
2024-02-07T07:02:53.710Z,70.40
2024-02-07T07:05:21.125Z,70.40
2024-02-07T07:07:48.089Z,70.60
2024-02-07T07:10:15.464Z,70.80
2024-02-07T07:12:42.616Z,70.90
2024-02-07T07:15:22.580Z,71.00
2024-02-07T07:17:57.570Z,71.20
2024-02-07T07:20:24.774Z,71.40
2024-02-07T07:23:02.961Z,71.50
2024-02-07T07:25:34.890Z,71.60
2024-02-07T07:28:02.813Z,71.60
2024-02-07T07:30:29.837Z,72.10
2024-02-07T07:32:56.941Z,71.80
2024-02-07T07:35:24.132Z,71.90
2024-02-07T07:37:51.635Z,71.90
2024-02-07T07:40:20.615Z,72.00
2024-02-07T07:42:47.788Z,72.00
2024-02-07T07:45:14.777Z,72.10
2024-02-07T07:47:42.175Z,72.20
2024-02-07T07:50:10.157Z,72.30
2024-02-07T07:52:38.250Z,72.40
2024-02-07T07:55:06.053Z,72.40
2024-02-07T07:57:33.469Z,72.40
2024-02-07T08:00:00.863Z,72.40
2024-02-07T08:02:31.342Z,72.40
2024-02-07T08:04:59.082Z,72.30
2024-02-07T08:07:29.337Z,72.40
2024-02-07T08:09:56.782Z,72.30
2024-02-07T08:12:24.213Z,72.30
2024-02-07T08:14:51.499Z,72.30
2024-02-07T08:17:19.827Z,72.30
2024-02-07T08:19:48.989Z,72.30
2024-02-07T08:22:16.622Z,72.40
2024-02-07T08:24:44.112Z,72.50
2024-02-07T08:27:11.436Z,72.50
2024-02-07T08:29:39.160Z,72.50
2024-02-07T08:32:06.757Z,72.50
2024-02-07T08:34:35.247Z,72.40
2024-02-07T08:37:03.001Z,72.30
2024-02-07T08:39:30.410Z,72.20
2024-02-07T08:41:57.745Z,72.10
2024-02-07T08:44:25.207Z,72.20
2024-02-07T08:46:52.501Z,72.20
2024-02-07T08:49:21.050Z,72.10
2024-02-07T08:51:48.406Z,72.10
2024-02-07T08:54:15.636Z,72.00
2024-02-07T08:56:43.033Z,72.00
2024-02-07T08:59:10.444Z,71.90
2024-02-07T09:01:37.894Z,71.90
2024-02-07T09:04:05.686Z,71.80
2024-02-07T09:06:33.015Z,71.80
2024-02-07T09:09:00.445Z,71.60
2024-02-07T09:11:27.663Z,71.60
2024-02-07T09:13:55.331Z,71.50
2024-02-07T09:16:22.767Z,71.50
2024-02-07T09:18:49.903Z,71.20
2024-02-07T09:21:18.523Z,71.00
2024-02-07T09:23:47.411Z,70.80
2024-02-07T09:26:14.769Z,70.50
2024-02-07T09:28:42.007Z,70.40
2024-02-07T09:31:10.114Z,70.10
2024-02-07T09:33:37.445Z,69.60
2024-02-07T09:36:05.442Z,69.30
2024-02-07T09:38:33.099Z,68.90
2024-02-07T09:41:01.965Z,68.60
2024-02-07T09:43:30.073Z,68.40
2024-02-07T09:46:00.988Z,68.20
2024-02-07T09:48:29.605Z,67.90
2024-02-07T09:51:01.149Z,67.50
2024-02-07T09:53:29.997Z,67.40
2024-02-07T09:55:58.823Z,67.50
2024-02-07T09:58:26.749Z,67.40
2024-02-07T10:00:54.258Z,67.50
2024-02-07T10:03:25.164Z,67.70
2024-02-07T10:05:55.649Z,67.80
2024-02-07T10:08:24.609Z,67.80
2024-02-07T10:10:52.296Z,67.80
2024-02-07T10:13:19.551Z,67.70
2024-02-07T10:15:48.540Z,67.70
2024-02-07T10:18:15.784Z,67.70
2024-02-07T10:20:56.472Z,67.70
2024-02-07T10:23:24.201Z,67.70
2024-02-07T10:25:55.787Z,67.70
2024-02-07T10:28:26.211Z,67.30
2024-02-07T10:31:05.301Z,67.40
2024-02-07T10:33:43.570Z,67.20
2024-02-07T10:36:13.827Z,67.20
2024-02-07T10:38:41.719Z,67.10
2024-02-07T10:41:09.432Z,67.00
2024-02-07T10:43:38.582Z,67.10
2024-02-07T10:46:14.619Z,67.40
2024-02-07T10:48:42.764Z,67.40
2024-02-07T10:51:10.670Z,67.50
2024-02-07T10:53:38.324Z,67.50
2024-02-07T10:56:06.437Z,67.50
2024-02-07T10:58:34.657Z,67.50
2024-02-07T11:01:02.749Z,67.30
2024-02-07T11:03:33.415Z,67.20
2024-02-07T11:06:01.341Z,67.10
2024-02-07T11:08:29.542Z,67.10
2024-02-07T11:10:58.748Z,67.00
2024-02-07T11:13:27.898Z,67.00
2024-02-07T11:15:55.380Z,66.80
2024-02-07T11:18:22.517Z,66.80
2024-02-07T11:20:52.254Z,66.50
2024-02-07T11:23:23.604Z,66.10
2024-02-07T11:25:53.298Z,65.80
2024-02-07T11:28:21.077Z,65.60
2024-02-07T11:30:55.882Z,65.60
2024-02-07T11:33:23.608Z,65.90
2024-02-07T11:35:50.742Z,65.80
2024-02-07T11:38:21.953Z,65.80
2024-02-07T11:40:49.423Z,65.60
2024-02-07T11:43:25.763Z,65.40
2024-02-07T11:46:06.944Z,65.90
2024-02-07T11:48:42.903Z,65.80
2024-02-07T11:51:11.183Z,65.80
2024-02-07T11:53:42.369Z,65.90
2024-02-07T11:56:13.811Z,66.00
2024-02-07T11:58:42.226Z,66.20
2024-02-07T12:01:11.258Z,66.10
2024-02-07T12:03:41.705Z,65.80
2024-02-07T12:06:12.848Z,65.90
2024-02-07T12:08:40.730Z,66.00
2024-02-07T12:11:11.090Z,65.90
2024-02-07T12:13:39.218Z,65.70
2024-02-07T12:16:08.899Z,65.90
2024-02-07T12:18:36.733Z,65.90
2024-02-07T12:21:05.025Z,65.90
2024-02-07T12:23:33.918Z,65.50
2024-02-07T12:26:02.637Z,65.70
2024-02-07T12:28:29.920Z,65.70
2024-02-07T12:31:00.837Z,65.80
2024-02-07T12:33:29.192Z,66.00
2024-02-07T12:35:58.212Z,66.00
2024-02-07T12:38:26.042Z,65.90
2024-02-07T12:40:55.077Z,65.80
2024-02-07T12:43:29.981Z,65.80
2024-02-07T12:45:58.635Z,66.00
2024-02-07T12:48:27.350Z,65.90
2024-02-07T12:50:56.282Z,66.00
2024-02-07T12:53:23.951Z,66.00
2024-02-07T12:55:51.624Z,65.90
2024-02-07T12:58:18.895Z,65.80
2024-02-07T13:00:46.728Z,65.80
2024-02-07T13:03:14.219Z,65.70
2024-02-07T13:05:41.369Z,65.70
2024-02-07T13:08:12.737Z,65.80
2024-02-07T13:10:40.424Z,65.70
2024-02-07T13:13:07.576Z,65.70
2024-02-07T13:15:35.081Z,65.50
2024-02-07T13:18:04.205Z,65.10
2024-02-07T13:20:31.616Z,65.00
2024-02-07T13:22:59.142Z,65.00
2024-02-07T13:25:26.866Z,64.80
2024-02-07T13:27:53.983Z,64.70
2024-02-07T13:30:20.998Z,64.70
2024-02-07T13:32:48.156Z,64.70
2024-02-07T13:35:16.877Z,64.60
2024-02-07T13:37:44.275Z,64.60
2024-02-07T13:40:12.898Z,64.50
2024-02-07T13:42:40.203Z,64.60
2024-02-07T13:45:07.826Z,64.50
2024-02-07T13:47:35.510Z,64.70
2024-02-07T13:50:02.835Z,64.50
2024-02-07T13:52:30.462Z,64.30
2024-02-07T13:54:57.924Z,64.10
2024-02-07T13:57:25.071Z,64.20
2024-02-07T13:59:52.010Z,64.00
2024-02-07T14:02:19.540Z,64.10
2024-02-07T14:04:46.731Z,64.20
2024-02-07T14:07:13.860Z,64.20
2024-02-07T14:09:41.025Z,64.30
2024-02-07T14:12:08.293Z,64.00
2024-02-07T14:14:36.480Z,64.20
2024-02-07T14:17:03.631Z,64.20
2024-02-07T14:19:30.819Z,64.20
2024-02-07T14:22:00.002Z,64.30
2024-02-07T14:24:30.133Z,64.20
2024-02-07T14:26:57.400Z,64.30
2024-02-07T14:29:24.829Z,64.40
2024-02-07T14:31:52.918Z,64.40
2024-02-07T14:34:20.315Z,64.20
2024-02-07T14:36:47.516Z,64.10
2024-02-07T14:39:14.552Z,63.80
2024-02-07T14:41:42.033Z,63.80
2024-02-07T14:44:09.175Z,63.50
2024-02-07T14:46:36.817Z,63.50
2024-02-07T14:49:05.620Z,63.60
2024-02-07T14:51:33.213Z,63.60
2024-02-07T14:54:00.355Z,63.40
2024-02-07T14:56:27.381Z,63.20
2024-02-07T14:58:54.427Z,63.20
2024-02-07T15:01:23.774Z,63.00
2024-02-07T15:03:50.946Z,63.00
2024-02-07T15:06:17.991Z,63.00
2024-02-07T15:08:45.156Z,63.00
2024-02-07T15:11:12.497Z,62.90
2024-02-07T15:13:39.665Z,62.80
2024-02-07T15:16:07.029Z,62.60
2024-02-07T15:18:34.096Z,62.60
2024-02-07T15:21:01.147Z,62.60
2024-02-07T15:23:28.084Z,62.70
2024-02-07T15:25:55.178Z,62.70
2024-02-07T15:28:22.353Z,62.80
2024-02-07T15:30:50.847Z,62.80
2024-02-07T15:33:19.357Z,62.90
2024-02-07T15:35:46.458Z,63.00
2024-02-07T15:38:14.239Z,63.00
2024-02-07T15:40:41.606Z,62.80
2024-02-07T15:43:09.171Z,62.90
2024-02-07T15:45:39.589Z,62.80
2024-02-07T15:48:08.904Z,62.50
2024-02-07T15:50:36.135Z,62.50
2024-02-07T15:53:03.529Z,62.50
2024-02-07T15:55:30.668Z,62.40
2024-02-07T15:57:57.768Z,62.30
2024-02-07T16:00:24.962Z,62.00
2024-02-07T16:02:52.072Z,62.10
2024-02-07T16:05:21.422Z,61.90
2024-02-07T16:07:48.707Z,61.90
2024-02-07T16:10:16.678Z,61.90
2024-02-07T16:12:44.371Z,61.60
2024-02-07T16:15:11.431Z,61.50
2024-02-07T16:17:38.664Z,61.30
2024-02-07T16:20:06.738Z,61.30
2024-02-07T16:22:33.818Z,61.30
2024-02-07T16:25:01.087Z,61.20
2024-02-07T16:27:28.137Z,61.30
2024-02-07T16:29:55.419Z,61.10
2024-02-07T16:32:22.913Z,61.00
2024-02-07T16:34:50.926Z,60.90
2024-02-07T16:37:18.279Z,60.80
2024-02-07T16:39:45.277Z,60.70
2024-02-07T16:42:12.327Z,60.80
2024-02-07T16:44:39.407Z,60.80
2024-02-07T16:47:06.503Z,60.80
2024-02-07T16:49:33.631Z,60.80
2024-02-07T16:52:00.666Z,60.80
2024-02-07T16:54:27.739Z,61.00
2024-02-07T16:56:54.694Z,61.00
2024-02-07T16:59:24.883Z,61.10
2024-02-07T17:01:53.333Z,61.20
2024-02-07T17:04:20.552Z,61.20
2024-02-07T17:06:48.021Z,61.20
2024-02-07T17:09:15.271Z,61.20
2024-02-07T17:11:42.848Z,62.60
2024-02-07T17:14:09.980Z,64.90
2024-02-07T17:16:39.999Z,66.50
2024-02-07T17:19:07.463Z,67.10
2024-02-07T17:21:34.427Z,68.00
2024-02-07T17:24:03.009Z,67.60
2024-02-07T17:26:30.013Z,67.40
2024-02-07T17:28:57.301Z,66.80
2024-02-07T17:31:24.355Z,66.80
2024-02-07T17:33:51.575Z,66.60
2024-02-07T17:36:18.700Z,66.30
2024-02-07T17:38:46.457Z,66.00
2024-02-07T17:41:14.211Z,65.50
2024-02-07T17:43:41.548Z,65.80
2024-02-07T17:46:09.259Z,64.10
2024-02-07T17:48:37.560Z,63.50
2024-02-07T17:51:05.337Z,63.30
2024-02-07T17:53:32.686Z,62.90
2024-02-07T17:55:59.862Z,62.80
2024-02-07T17:58:27.174Z,62.80
2024-02-07T18:00:54.214Z,62.50
2024-02-07T18:03:21.209Z,62.50
2024-02-07T18:05:54.905Z,62.40
2024-02-07T18:08:33.401Z,62.50
2024-02-07T18:11:03.991Z,62.50
2024-02-07T18:13:41.815Z,62.50
2024-02-07T18:16:23.886Z,62.60
2024-02-07T18:19:02.636Z,62.60
2024-02-07T18:21:43.443Z,62.70
2024-02-07T18:24:16.784Z,62.90
2024-02-07T18:27:08.663Z,62.90
2024-02-07T18:29:46.621Z,63.10
2024-02-07T18:32:40.371Z,63.50
2024-02-07T18:35:23.597Z,64.40
2024-02-07T18:38:03.344Z,64.90
2024-02-07T18:40:38.702Z,65.60
2024-02-07T18:43:19.518Z,66.10
2024-02-07T18:46:10.361Z,66.30
2024-02-07T18:49:00.421Z,66.40
2024-02-07T18:51:51.705Z,66.50
2024-02-07T18:54:48.314Z,66.50
2024-02-07T18:57:58.762Z,66.30
2024-02-07T19:00:31.240Z,66.10
2024-02-07T19:03:33.207Z,65.80
2024-02-07T19:06:11.812Z,65.80
2024-02-07T19:09:00.050Z,65.60
2024-02-07T19:11:38.477Z,65.60
2024-02-07T19:14:05.726Z,65.60
2024-02-07T19:16:47.972Z,65.60
2024-02-07T19:19:21.892Z,65.80
2024-02-07T19:22:09.924Z,66.20
2024-02-07T19:24:40.529Z,67.20
2024-02-07T19:27:07.907Z,67.60
2024-02-07T19:29:39.510Z,67.80
2024-02-07T19:32:06.902Z,67.80
2024-02-07T19:34:34.534Z,67.80
2024-02-07T19:37:02.036Z,67.60
2024-02-07T19:39:29.408Z,67.50
2024-02-07T19:41:56.716Z,67.50
2024-02-07T19:44:23.962Z,67.70
2024-02-07T19:46:52.001Z,67.70
2024-02-07T19:49:19.297Z,67.80
2024-02-07T19:51:46.581Z,67.80
2024-02-07T19:54:16.687Z,67.80
2024-02-07T19:56:51.115Z,68.00
2024-02-07T19:59:22.084Z,68.00
2024-02-07T20:01:49.827Z,68.00
2024-02-07T20:04:19.008Z,68.10
2024-02-07T20:06:47.995Z,68.10
2024-02-07T20:09:15.787Z,68.20
2024-02-07T20:11:43.170Z,68.20
2024-02-07T20:14:10.585Z,68.30
2024-02-07T20:16:38.277Z,68.40
2024-02-07T20:19:05.705Z,68.50
2024-02-07T20:21:36.877Z,68.70
2024-02-07T20:24:05.155Z,68.80
2024-02-07T20:26:32.615Z,68.90
2024-02-07T20:29:01.002Z,69.10
2024-02-07T20:31:28.393Z,69.30
2024-02-07T20:33:55.919Z,69.30
2024-02-07T20:36:27.429Z,69.40
2024-02-07T20:38:54.958Z,69.60
2024-02-07T20:41:22.383Z,69.80
2024-02-07T20:43:50.794Z,70.00
2024-02-07T20:46:18.844Z,70.10
2024-02-07T20:48:46.406Z,70.20
2024-02-07T20:51:13.945Z,70.30
2024-02-07T20:53:41.255Z,70.50
2024-02-07T20:56:08.511Z,71.40
2024-02-07T20:58:35.983Z,70.70
2024-02-07T21:01:03.242Z,70.90
2024-02-07T21:03:30.290Z,71.00
2024-02-07T21:05:58.563Z,71.20
2024-02-07T21:08:25.647Z,71.40
2024-02-07T21:10:52.770Z,71.50
2024-02-07T21:13:20.981Z,71.60
2024-02-07T21:15:48.339Z,71.80
2024-02-07T21:18:15.375Z,71.80
2024-02-07T21:20:42.476Z,72.00
2024-02-07T21:23:09.541Z,72.20
2024-02-07T21:25:36.552Z,72.30
2024-02-07T21:28:05.440Z,72.60
2024-02-07T21:30:34.029Z,72.70
2024-02-07T21:33:01.247Z,72.90
2024-02-07T21:35:30.326Z,73.10
2024-02-07T21:37:57.610Z,73.30
2024-02-07T21:40:26.420Z,73.30
2024-02-07T21:42:53.464Z,73.40
2024-02-07T21:45:20.591Z,73.70
2024-02-07T21:47:47.536Z,73.80
2024-02-07T21:50:17.043Z,74.00
2024-02-07T21:52:44.211Z,74.20
2024-02-07T21:55:11.217Z,74.30
2024-02-07T21:57:38.227Z,74.60
2024-02-07T22:00:05.860Z,74.60
2024-02-07T22:02:34.339Z,74.80
2024-02-07T22:05:01.378Z,75.20
2024-02-07T22:07:28.513Z,75.20
2024-02-07T22:09:55.577Z,75.30
2024-02-07T22:12:25.246Z,75.30
2024-02-07T22:14:52.548Z,75.40
2024-02-07T22:17:19.548Z,75.60
2024-02-07T22:19:46.995Z,75.90
2024-02-07T22:22:14.456Z,76.80
2024-02-07T22:24:44.670Z,78.50
2024-02-07T22:27:12.064Z,79.90
2024-02-07T22:29:42.982Z,81.50
2024-02-07T22:32:10.075Z,82.90
2024-02-07T22:34:37.696Z,83.60
2024-02-07T22:37:05.133Z,84.60
2024-02-07T22:39:32.115Z,85.20
2024-02-07T22:41:59.197Z,85.60
2024-02-07T22:44:26.278Z,86.20
2024-02-07T22:46:53.380Z,86.80
2024-02-07T22:49:20.419Z,87.10
2024-02-07T22:51:48.628Z,87.20
2024-02-07T22:54:16.638Z,87.40
2024-02-07T22:56:45.287Z,87.80
2024-02-07T22:59:12.572Z,87.60
2024-02-07T23:01:39.664Z,88.00
2024-02-07T23:04:09.373Z,88.00
2024-02-07T23:06:39.495Z,88.20
2024-02-07T23:09:06.968Z,88.20
2024-02-07T23:11:33.942Z,88.30
2024-02-07T23:14:00.979Z,88.30
2024-02-07T23:16:27.978Z,88.30
2024-02-07T23:18:55.036Z,88.20
2024-02-07T23:21:21.980Z,88.10
2024-02-07T23:23:49.042Z,87.90
2024-02-07T23:26:16.082Z,87.80
2024-02-07T23:28:43.094Z,87.70
2024-02-07T23:31:10.144Z,87.50
2024-02-07T23:33:37.246Z,87.30
2024-02-07T23:36:04.517Z,87.10
2024-02-07T23:38:31.474Z,87.10
2024-02-07T23:40:58.502Z,87.20
2024-02-07T23:43:25.504Z,87.00
2024-02-07T23:45:52.658Z,87.00
2024-02-07T23:48:19.772Z,87.00
2024-02-07T23:50:46.802Z,86.90
2024-02-07T23:53:13.831Z,86.90
2024-02-07T23:55:40.880Z,86.80
2024-02-07T23:58:10.977Z,86.60
